createdAt,value
2022-08-24T00:01:22.664Z,46.40
2022-08-24T00:06:27.027Z,46.10
2022-08-24T00:11:29.943Z,45.70
2022-08-24T00:16:32.803Z,48.72
2022-08-24T00:21:36.147Z,44.37
2022-08-24T00:26:39.496Z,44.33
2022-08-24T00:31:42.539Z,46.60
2022-08-24T00:36:45.983Z,49.87
2022-08-24T00:41:51.218Z,45.00
2022-08-24T00:47:02.728Z,49.83
2022-08-24T00:52:35.858Z,51.92
2022-08-24T00:57:43.458Z,50.72
2022-08-24T01:02:49.893Z,53.50
2022-08-24T01:07:52.662Z,43.90
2022-08-24T01:13:00.542Z,48.57
2022-08-24T01:18:25.124Z,45.00
2022-08-24T01:23:45.563Z,54.90
2022-08-24T01:28:52.014Z,51.47
2022-08-24T01:33:56.133Z,54.47
2022-08-24T01:39:04.726Z,55.80
2022-08-24T01:44:08.123Z,56.47
2022-08-24T01:49:11.768Z,57.60
2022-08-24T01:54:15.796Z,55.40
2022-08-24T01:59:20.674Z,53.40
2022-08-24T02:04:25.342Z,57.23
2022-08-24T02:09:37.333Z,60.85
2022-08-24T02:14:41.057Z,58.47
2022-08-24T02:19:45.749Z,56.43
2022-08-24T02:24:48.863Z,53.13
2022-08-24T02:29:51.884Z,63.10
2022-08-24T02:34:55.069Z,53.08
2022-08-24T02:39:58.450Z,55.38
2022-08-24T02:45:03.083Z,59.43
2022-08-24T02:50:08.878Z,64.65
2022-08-24T02:55:15.880Z,63.63
2022-08-24T03:00:23.616Z,66.13
2022-08-24T03:05:26.683Z,69.50
2022-08-24T03:10:29.839Z,73.07
2022-08-24T03:15:33.311Z,73.50
2022-08-24T03:20:37.759Z,64.30
2022-08-24T03:25:40.601Z,58.05
2022-08-24T03:30:46.871Z,69.15
2022-08-24T03:35:54.442Z,75.57
2022-08-24T03:40:58.495Z,71.32
2022-08-24T03:46:03.293Z,76.97
2022-08-24T03:51:07.662Z,83.63
2022-08-24T03:56:10.869Z,78.85
2022-08-24T04:01:20.642Z,83.38
2022-08-24T04:06:25.484Z,78.80
2022-08-24T04:11:30.234Z,76.05
2022-08-24T04:16:34.281Z,81.10
2022-08-24T04:21:59.271Z,84.10
2022-08-24T04:27:02.443Z,86.72
2022-08-24T04:32:05.558Z,84.17
2022-08-24T04:37:11.329Z,85.35
2022-08-24T04:42:14.745Z,86.00
2022-08-24T04:47:19.083Z,88.22
2022-08-24T04:52:21.954Z,88.30
2022-08-24T04:57:24.661Z,66.20
2022-08-24T05:02:28.020Z,80.35
2022-08-24T05:07:32.694Z,90.50
2022-08-24T05:12:35.523Z,89.53
2022-08-24T05:17:43.656Z,86.32
2022-08-24T05:22:56.320Z,94.70
2022-08-24T05:28:01.421Z,75.10
2022-08-24T05:33:05.349Z,73.77
2022-08-24T05:38:11.020Z,82.82
2022-08-24T05:43:14.721Z,69.80
2022-08-24T05:48:18.512Z,70.03
2022-08-24T05:53:52.179Z,67.18
2022-08-24T05:58:56.202Z,77.97
2022-08-24T06:04:00.578Z,77.88
2022-08-24T06:09:03.895Z,72.57
2022-08-24T06:14:13.345Z,62.33
2022-08-24T06:19:27.449Z,57.05
2022-08-24T06:24:49.979Z,70.93
2022-08-24T06:30:06.579Z,58.58
2022-08-24T06:35:33.662Z,68.47
2022-08-24T06:40:37.456Z,59.27
2022-08-24T06:45:44.918Z,59.90
2022-08-24T06:50:50.172Z,61.30
2022-08-24T06:55:57.764Z,75.57
2022-08-24T07:01:14.331Z,63.47
2022-08-24T07:06:19.269Z,61.43
2022-08-24T07:11:22.483Z,55.50
2022-08-24T07:16:27.697Z,55.80
2022-08-24T07:21:36.410Z,54.92
2022-08-24T07:26:41.626Z,57.28
2022-08-24T07:31:45.185Z,56.60
2022-08-24T07:36:57.282Z,47.47
2022-08-24T07:42:20.976Z,50.00
2022-08-24T07:47:38.087Z,45.38
2022-08-24T07:52:53.584Z,41.28
2022-08-24T07:57:56.834Z,39.60
2022-08-24T08:03:00.402Z,36.30
2022-08-24T08:08:04.022Z,27.67
2022-08-24T08:13:09.176Z,25.85
2022-08-24T08:18:14.915Z,29.67
2022-08-24T08:23:36.602Z,26.67
2022-08-24T08:28:49.200Z,24.92
2022-08-24T08:33:52.293Z,29.23
2022-08-24T08:38:55.478Z,21.67
2022-08-24T08:44:12.149Z,24.42
2022-08-24T08:49:53.579Z,27.90
2022-08-24T08:55:44.830Z,21.45
2022-08-24T09:01:16.309Z,21.37
2022-08-24T09:06:35.410Z,22.92
2022-08-24T09:12:02.720Z,27.90
2022-08-24T09:17:42.509Z,23.20
2022-08-24T09:22:48.648Z,23.83
2022-08-24T09:28:14.876Z,24.27
2022-08-24T09:33:37.529Z,25.63
2022-08-24T09:38:49.398Z,24.67
2022-08-24T09:44:10.293Z,22.80
2022-08-24T09:49:14.422Z,25.95
2022-08-24T09:54:44.967Z,26.93
2022-08-24T10:00:02.261Z,25.35
2022-08-24T10:05:28.267Z,28.02
2022-08-24T10:11:08.321Z,23.23
2022-08-24T10:16:33.742Z,26.48
2022-08-24T10:21:50.517Z,27.37
2022-08-24T10:27:34.228Z,28.60
2022-08-24T10:33:12.598Z,26.92
2022-08-24T10:38:43.599Z,24.87
2022-08-24T10:43:53.067Z,24.08
2022-08-24T10:49:34.492Z,26.23
2022-08-24T10:54:37.838Z,29.95
2022-08-24T11:00:07.150Z,26.15
2022-08-24T11:05:28.408Z,25.83
2022-08-24T11:10:41.117Z,22.63
2022-08-24T11:15:57.112Z,29.23
2022-08-24T11:21:00.858Z,29.25
2022-08-24T11:26:13.758Z,24.63
2022-08-24T11:31:38.856Z,21.77
2022-08-24T11:36:42.586Z,22.98
2022-08-24T11:42:00.576Z,19.53
2022-08-24T11:47:30.297Z,27.17
2022-08-24T11:52:38.918Z,25.50
2022-08-24T11:57:57.392Z,23.63
2022-08-24T12:03:31.188Z,25.92
2022-08-24T12:08:44.063Z,25.60
2022-08-24T12:13:57.173Z,29.70
2022-08-24T12:19:28.335Z,26.38
2022-08-24T12:24:40.144Z,25.13
2022-08-24T12:30:05.277Z,30.20
2022-08-24T12:35:30.401Z,28.23
2022-08-24T12:40:43.033Z,26.85
2022-08-24T12:45:46.741Z,28.33
2022-08-24T12:50:53.074Z,28.80
2022-08-24T12:56:18.589Z,25.95
2022-08-24T13:01:25.777Z,26.60
2022-08-24T13:06:54.235Z,25.77
2022-08-24T13:12:38.658Z,32.05
2022-08-24T13:17:42.580Z,29.53
2022-08-24T13:23:05.371Z,29.73
2022-08-24T13:28:27.099Z,28.80
2022-08-24T13:33:36.299Z,26.65
2022-08-24T13:38:48.855Z,26.90
2022-08-24T13:44:00.581Z,28.40
2022-08-24T13:49:16.215Z,30.77
2022-08-24T13:54:46.215Z,24.97
2022-08-24T14:00:18.307Z,26.50
2022-08-24T14:05:53.164Z,27.92
2022-08-24T14:11:38.238Z,24.87
2022-08-24T14:17:19.693Z,28.55
2022-08-24T14:22:52.267Z,26.03
2022-08-24T14:28:01.624Z,28.67
2022-08-24T14:33:21.619Z,26.63
2022-08-24T14:38:57.174Z,27.30
2022-08-24T14:44:32.449Z,31.80
2022-08-24T14:49:58.777Z,34.13
2022-08-24T14:55:31.049Z,25.77
2022-08-24T15:00:51.995Z,29.25
2022-08-24T15:06:37.613Z,29.93
2022-08-24T15:11:41.746Z,29.23
2022-08-24T15:16:54.244Z,27.80
2022-08-24T15:22:24.362Z,28.17
2022-08-24T15:27:45.613Z,29.58
2022-08-24T15:32:55.959Z,26.27
2022-08-24T15:38:16.433Z,30.95
2022-08-24T15:43:22.496Z,27.10
2022-08-24T15:48:26.928Z,26.80
2022-08-24T15:53:40.969Z,26.73
2022-08-24T15:58:43.776Z,24.33
2022-08-24T16:04:11.383Z,28.42
2022-08-24T16:09:34.990Z,25.27
2022-08-24T16:14:47.070Z,31.30
2022-08-24T16:19:53.794Z,28.02
2022-08-24T16:25:14.210Z,27.03
2022-08-24T16:30:43.501Z,26.90
2022-08-24T16:35:46.469Z,29.03
2022-08-24T16:40:49.443Z,32.70
2022-08-24T16:45:55.048Z,21.50
2022-08-24T16:50:58.220Z,15.93
2022-08-24T16:56:04.510Z,13.98
2022-08-24T17:01:07.437Z,10.93
2022-08-24T17:06:12.708Z,10.27
2022-08-24T17:11:16.672Z,10.30
2022-08-24T17:16:21.690Z,14.37
2022-08-24T17:21:24.762Z,12.02
2022-08-24T17:26:27.759Z,10.97
2022-08-24T17:31:31.868Z,14.55
2022-08-24T17:36:35.350Z,8.93
2022-08-24T17:41:39.297Z,11.90
2022-08-24T17:46:42.692Z,11.77
2022-08-24T17:51:46.329Z,15.23
2022-08-24T17:56:51.144Z,10.50
2022-08-24T18:02:01.069Z,10.50
2022-08-24T18:07:12.066Z,11.80
2022-08-24T18:12:19.449Z,14.02
2022-08-24T18:17:30.663Z,11.57
2022-08-24T18:22:33.730Z,15.55
2022-08-24T18:27:36.769Z,10.38
2022-08-24T18:32:40.994Z,12.87
2022-08-24T18:37:44.443Z,13.30
2022-08-24T18:42:48.650Z,13.27
2022-08-24T18:47:53.504Z,12.73
2022-08-24T18:52:58.330Z,16.98
2022-08-24T18:58:01.848Z,13.67
2022-08-24T19:03:08.130Z,13.35
2022-08-24T19:08:11.200Z,17.90
2022-08-24T19:13:16.149Z,15.68
2022-08-24T19:18:21.684Z,13.52
2022-08-24T19:23:30.694Z,13.70
2022-08-24T19:28:33.757Z,14.65
2022-08-24T19:33:39.750Z,14.63
2022-08-24T19:38:44.161Z,13.32
2022-08-24T19:44:10.407Z,13.95
2022-08-24T19:49:13.541Z,9.87
2022-08-24T19:54:16.408Z,15.50
2022-08-24T19:59:28.543Z,11.23
2022-08-24T20:04:31.560Z,13.38
2022-08-24T20:09:34.390Z,10.75
2022-08-24T20:14:37.604Z,12.33
2022-08-24T20:19:40.771Z,13.90
2022-08-24T20:24:44.781Z,9.50
2022-08-24T20:29:47.928Z,14.15
2022-08-24T20:34:51.580Z,9.55
2022-08-24T20:39:58.420Z,12.90
2022-08-24T20:45:01.492Z,17.20
2022-08-24T20:50:04.871Z,12.87
2022-08-24T20:55:08.272Z,11.45
2022-08-24T21:00:12.795Z,12.63
2022-08-24T21:05:16.136Z,14.30
2022-08-24T21:10:24.902Z,11.82
2022-08-24T21:15:29.710Z,13.27
2022-08-24T21:20:33.050Z,9.52
2022-08-24T21:25:36.539Z,10.55
2022-08-24T21:30:39.350Z,12.07
2022-08-24T21:35:43.240Z,12.43
2022-08-24T21:40:48.390Z,11.03
2022-08-24T21:45:52.111Z,11.63
2022-08-24T21:50:54.905Z,10.38
2022-08-24T21:56:00.901Z,10.60
2022-08-24T22:01:04.149Z,9.65
2022-08-24T22:06:07.896Z,15.13
2022-08-24T22:11:13.482Z,11.50
2022-08-24T22:16:16.854Z,13.98
2022-08-24T22:21:23.044Z,10.80
2022-08-24T22:26:28.720Z,11.63
2022-08-24T22:31:35.091Z,10.43
2022-08-24T22:36:38.720Z,9.20
2022-08-24T22:41:42.297Z,10.35
2022-08-24T22:46:46.598Z,12.00
2022-08-24T22:51:51.066Z,13.38
2022-08-24T22:56:55.999Z,13.57
2022-08-24T23:01:59.095Z,12.30
2022-08-24T23:07:03.840Z,12.27
2022-08-24T23:12:08.597Z,14.43
2022-08-24T23:17:11.904Z,12.48
2022-08-24T23:22:17.010Z,9.63
2022-08-24T23:27:21.778Z,11.68
2022-08-24T23:32:24.923Z,12.30
2022-08-24T23:37:27.915Z,12.20
2022-08-24T23:42:30.895Z,15.48
2022-08-24T23:47:35.644Z,15.60
2022-08-24T23:52:39.617Z,10.45
2022-08-24T23:57:42.384Z,15.38
